Time;durP1;ratioP1;P1;durP2;ratioP2;P2;SDS_P1;SDS_P2;PMS_P1;PMS_P2;Temp;Humidity;BMP_temperature;BMP_pressure;BME280_temperature;BME280_humidity;BME280_pressure;Samples;Min_cycle;Max_cycle;Signal;HPM_P1;HPM_P2
2023/10/31 00:01:14;;;;;;;0.50;0.50;;;;;;;;;;5050780;28;20214;-85
2023/10/31 00:03:42;;;;;;;0.40;0.40;;;;;;;;;;5054955;28;20168;-86
2023/10/31 00:06:08;;;;;;;0.50;0.50;;;;;;;;;;5054582;28;20214;-87
2023/10/31 00:08:34;;;;;;;0.50;0.50;;;;;;;;;;5055429;28;20171;-86
2023/10/31 00:11:00;;;;;;;0.53;0.53;;;;;;;;;;5054504;28;20175;-86
2023/10/31 00:13:26;;;;;;;0.57;0.57;;;;;;;;;;5047121;28;20551;-87
2023/10/31 00:15:54;;;;;;;0.50;0.50;;;;;;;;;;5032022;28;20265;-86
2023/10/31 00:18:20;;;;;;;0.60;0.60;;;;;;;;;;5029174;28;20720;-87
2023/10/31 00:20:47;;;;;;;0.50;0.50;;;;;;;;;;5029679;28;20243;-86
2023/10/31 00:23:13;;;;;;;0.57;0.57;;;;;;;;;;5082148;28;20264;-87
2023/10/31 00:25:39;;;;;;;0.50;0.50;;;;;;;;;;5113584;28;20185;-88
2023/10/31 00:28:07;;;;;;;0.50;0.50;;;;;;;;;;5115173;28;20165;-84
2023/10/31 00:30:33;;;;;;;0.60;0.60;;;;;;;;;;5114056;28;20185;-88
2023/10/31 00:32:59;;;;;;;0.50;0.50;;;;;;;;;;5115908;28;20177;-86
2023/10/31 00:35:25;;;;;;;0.60;0.60;;;;;;;;;;5116389;28;20259;-87
2023/10/31 00:37:51;;;;;;;0.53;0.53;;;;;;;;;;5119550;28;20177;-87
2023/10/31 00:40:17;;;;;;;0.60;0.60;;;;;;;;;;5119742;28;20740;-87
2023/10/31 00:42:43;;;;;;;0.63;0.63;;;;;;;;;;5117460;28;20172;-87
2023/10/31 00:45:09;;;;;;;0.50;0.50;;;;;;;;;;5118607;28;20276;-86
2023/10/31 00:47:36;;;;;;;0.47;0.47;;;;;;;;;;5118186;28;20314;-86
2023/10/31 00:50:02;;;;;;;0.50;0.50;;;;;;;;;;5118578;28;20203;-86
2023/10/31 00:52:28;;;;;;;0.60;0.60;;;;;;;;;;5116701;28;20715;-86
2023/10/31 00:54:54;;;;;;;0.40;0.40;;;;;;;;;;5117454;28;20177;-85
2023/10/31 00:57:20;;;;;;;0.50;0.50;;;;;;;;;;5131494;28;20259;-86
2023/10/31 00:59:46;;;;;;;0.60;0.60;;;;;;;;;;5139213;27;20188;-85
2023/10/31 01:02:12;;;;;;;0.50;0.50;;;;;;;;;;5137428;27;20180;-86
2023/10/31 01:04:39;;;;;;;0.50;0.50;;;;;;;;;;5117200;28;20176;-87
2023/10/31 01:07:05;;;;;;;0.50;0.50;;;;;;;;;;5117846;28;20224;-87
2023/10/31 01:09:31;;;;;;;0.60;0.60;;;;;;;;;;5115396;28;20240;-86
2023/10/31 01:11:57;;;;;;;0.50;0.50;;;;;;;;;;5117299;28;20180;-86
2023/10/31 01:14:23;;;;;;;0.50;0.50;;;;;;;;;;5117023;28;20177;-86
2023/10/31 01:16:49;;;;;;;0.50;0.50;;;;;;;;;;5117105;28;20183;-86
2023/10/31 01:19:15;;;;;;;0.70;0.70;;;;;;;;;;5117436;28;20181;-86
2023/10/31 01:21:41;;;;;;;0.60;0.60;;;;;;;;;;5117046;28;20366;-87
2023/10/31 01:24:07;;;;;;;0.50;0.50;;;;;;;;;;5117100;28;20177;-87
2023/10/31 01:26:35;;;;;;;0.60;0.60;;;;;;;;;;5116749;28;20284;-85
2023/10/31 01:29:01;;;;;;;0.50;0.50;;;;;;;;;;5117586;28;20709;-85
2023/10/31 01:31:28;;;;;;;0.57;0.57;;;;;;;;;;5117460;28;20217;-85
2023/10/31 01:33:54;;;;;;;0.40;0.40;;;;;;;;;;5116798;28;20166;-85
2023/10/31 01:36:20;;;;;;;0.50;0.50;;;;;;;;;;5116609;28;20276;-85
2023/10/31 01:38:46;;;;;;;0.50;0.50;;;;;;;;;;5116211;28;20265;-86
2023/10/31 01:41:12;;;;;;;0.63;0.63;;;;;;;;;;5117553;28;20201;-86
2023/10/31 01:43:38;;;;;;;0.40;0.40;;;;;;;;;;5120415;28;20184;-85
2023/10/31 01:46:05;;;;;;;0.60;0.60;;;;;;;;;;5137326;28;20207;-85
2023/10/31 01:48:32;;;;;;;0.53;0.53;;;;;;;;;;5134825;28;20173;-86
2023/10/31 01:51:03;;;;;;;0.60;0.60;;;;;;;;;;5115752;28;20260;-85
2023/10/31 01:53:30;;;;;;;0.60;0.60;;;;;;;;;;5115429;28;20177;-85
2023/10/31 01:55:56;;;;;;;0.60;0.60;;;;;;;;;;5114853;28;20204;-84
2023/10/31 01:58:24;;;;;;;0.60;0.60;;;;;;;;;;5116603;28;20348;-86
2023/10/31 02:00:52;;;;;;;0.50;0.50;;;;;;;;;;5116286;28;20747;-86
2023/10/31 02:03:18;;;;;;;0.50;0.50;;;;;;;;;;5116533;28;20184;-85
2023/10/31 02:05:44;;;;;;;0.60;0.60;;;;;;;;;;5115270;28;20250;-86
2023/10/31 02:08:10;;;;;;;0.50;0.50;;;;;;;;;;5116474;28;20229;-86
2023/10/31 02:10:36;;;;;;;0.60;0.60;;;;;;;;;;5115910;27;20180;-86
2023/10/31 02:13:18;;;;;;;0.60;0.60;;;;;;;;;;5115998;28;20172;-86
2023/10/31 02:15:44;;;;;;;0.60;0.60;;;;;;;;;;5115402;28;20197;-85
2023/10/31 02:18:11;;;;;;;0.50;0.50;;;;;;;;;;5115561;28;20280;-87
2023/10/31 02:20:37;;;;;;;0.50;0.50;;;;;;;;;;5117586;28;20193;-86
2023/10/31 02:23:03;;;;;;;0.57;0.57;;;;;;;;;;5116562;28;20165;-86
2023/10/31 02:25:30;;;;;;;0.60;0.60;;;;;;;;;;5116558;28;20268;-85
2023/10/31 02:27:56;;;;;;;0.60;0.60;;;;;;;;;;5115086;28;20173;-86
2023/10/31 02:30:22;;;;;;;0.50;0.50;;;;;;;;;;5117248;28;20169;-85
2023/10/31 02:32:48;;;;;;;0.60;0.60;;;;;;;;;;5116680;28;20195;-86
2023/10/31 02:35:16;;;;;;;0.60;0.60;;;;;;;;;;5116114;28;20192;-86
2023/10/31 02:37:42;;;;;;;0.60;0.60;;;;;;;;;;5116563;28;20175;-85
2023/10/31 02:40:09;;;;;;;0.50;0.50;;;;;;;;;;5117166;28;20315;-85
2023/10/31 02:42:35;;;;;;;0.60;0.60;;;;;;;;;;5117191;28;20544;-86
2023/10/31 02:45:01;;;;;;;0.50;0.50;;;;;;;;;;5117053;28;20222;-86
2023/10/31 02:47:27;;;;;;;0.60;0.60;;;;;;;;;;5117050;28;20177;-86
2023/10/31 02:49:53;;;;;;;0.80;0.80;;;;;;;;;;5118734;28;20254;-86
2023/10/31 02:52:19;;;;;;;0.67;0.67;;;;;;;;;;5127240;28;20165;-84
2023/10/31 02:54:45;;;;;;;0.50;0.50;;;;;;;;;;5136782;28;20169;-85
2023/10/31 02:57:12;;;;;;;0.60;0.60;;;;;;;;;;5136924;28;20668;-85
2023/10/31 02:59:38;;;;;;;0.50;0.50;;;;;;;;;;5136231;28;20193;-86
2023/10/31 03:02:05;;;;;;;0.60;0.60;;;;;;;;;;5119769;27;20204;-85
2023/10/31 03:04:31;;;;;;;0.50;0.50;;;;;;;;;;5137955;28;20289;-85
2023/10/31 03:06:57;;;;;;;0.60;0.60;;;;;;;;;;5136954;28;20205;-85
2023/10/31 03:09:23;;;;;;;0.60;0.60;;;;;;;;;;5125543;28;20745;-86
2023/10/31 03:11:49;;;;;;;0.67;0.67;;;;;;;;;;5117553;28;20209;-85
2023/10/31 03:14:15;;;;;;;0.63;0.63;;;;;;;;;;5117643;28;20189;-85
2023/10/31 03:16:41;;;;;;;0.50;0.50;;;;;;;;;;5118020;28;20249;-86
2023/10/31 03:19:07;;;;;;;0.50;0.50;;;;;;;;;;5116553;28;20552;-86
2023/10/31 03:21:33;;;;;;;0.63;0.63;;;;;;;;;;5113514;28;20289;-85
2023/10/31 03:23:59;;;;;;;0.40;0.40;;;;;;;;;;5116193;28;20177;-86
2023/10/31 03:26:25;;;;;;;0.53;0.53;;;;;;;;;;5114783;28;20696;-84
2023/10/31 03:28:56;;;;;;;0.50;0.50;;;;;;;;;;5119888;28;20233;-87
2023/10/31 03:31:22;;;;;;;0.60;0.60;;;;;;;;;;5115902;28;20192;-87
2023/10/31 03:33:48;;;;;;;0.47;0.47;;;;;;;;;;5115055;28;20173;-87
2023/10/31 03:36:15;;;;;;;0.60;0.60;;;;;;;;;;5116190;28;20259;-86
2023/10/31 03:38:41;;;;;;;0.70;0.70;;;;;;;;;;5117847;28;20661;-89
2023/10/31 03:41:08;;;;;;;0.53;0.53;;;;;;;;;;5117061;28;20354;-86
2023/10/31 03:43:34;;;;;;;0.60;0.60;;;;;;;;;;5115002;28;20264;-86
2023/10/31 03:46:00;;;;;;;0.50;0.50;;;;;;;;;;5114584;28;20250;-86
2023/10/31 03:48:26;;;;;;;0.60;0.60;;;;;;;;;;5114522;27;20264;-87
2023/10/31 03:50:52;;;;;;;0.57;0.57;;;;;;;;;;5116298;28;20193;-86
2023/10/31 03:53:18;;;;;;;0.43;0.43;;;;;;;;;;5113795;28;20197;-86
2023/10/31 03:55:45;;;;;;;0.57;0.57;;;;;;;;;;5114030;28;20197;-87
2023/10/31 03:58:11;;;;;;;0.60;0.60;;;;;;;;;;5125394;28;20180;-86
2023/10/31 04:00:39;;;;;;;0.50;0.50;;;;;;;;;;5137466;28;20213;-85
2023/10/31 04:03:05;;;;;;;0.50;0.50;;;;;;;;;;5139137;28;20175;-85
2023/10/31 04:05:31;;;;;;;0.60;0.60;;;;;;;;;;5138563;28;20181;-85
2023/10/31 04:07:57;;;;;;;0.50;0.50;;;;;;;;;;5138501;28;20161;-87
2023/10/31 04:10:25;;;;;;;0.60;0.60;;;;;;;;;;5137768;28;20176;-86
2023/10/31 04:12:51;;;;;;;0.60;0.60;;;;;;;;;;5116274;28;20180;-85
2023/10/31 04:15:16;;;;;;;0.50;0.50;;;;;;;;;;5115889;28;20276;-86
2023/10/31 04:17:42;;;;;;;0.60;0.60;;;;;;;;;;5129877;28;20188;-86
2023/10/31 04:20:09;;;;;;;0.60;0.60;;;;;;;;;;5117305;28;20169;-85
2023/10/31 04:22:35;;;;;;;0.60;0.60;;;;;;;;;;5118751;28;20177;-85
2023/10/31 04:25:01;;;;;;;0.60;0.60;;;;;;;;;;5134797;28;20234;-85
2023/10/31 04:27:27;;;;;;;0.60;0.60;;;;;;;;;;5136298;28;20153;-82
2023/10/31 04:29:53;;;;;;;0.50;0.50;;;;;;;;;;5131303;28;20184;-85
2023/10/31 04:32:19;;;;;;;0.63;0.63;;;;;;;;;;5118109;28;20197;-84
2023/10/31 04:34:45;;;;;;;0.50;0.50;;;;;;;;;;5115164;28;20642;-87
2023/10/31 04:37:11;;;;;;;0.80;0.80;;;;;;;;;;5120575;28;20169;-85
2023/10/31 04:39:37;;;;;;;0.60;0.60;;;;;;;;;;5121059;28;20185;-85
2023/10/31 04:42:04;;;;;;;0.60;0.60;;;;;;;;;;5120263;28;20253;-86
2023/10/31 04:44:30;;;;;;;0.60;0.60;;;;;;;;;;5119697;28;20184;-84
2023/10/31 04:46:56;;;;;;;0.67;0.67;;;;;;;;;;5119761;28;20896;-84
2023/10/31 04:49:22;;;;;;;0.80;0.80;;;;;;;;;;5117802;28;20185;-89
2023/10/31 04:51:48;;;;;;;0.60;0.60;;;;;;;;;;5112427;28;20180;-88
2023/10/31 04:54:14;;;;;;;0.57;0.57;;;;;;;;;;5033858;28;20179;-86
2023/10/31 04:56:40;;;;;;;0.60;0.60;;;;;;;;;;5009025;28;20197;-88
2023/10/31 04:59:06;;;;;;;0.70;0.70;;;;;;;;;;5011620;28;20165;-83
2023/10/31 05:01:33;;;;;;;0.60;0.60;;;;;;;;;;5037168;28;20247;-84
2023/10/31 05:03:59;;;;;;;0.60;0.60;;;;;;;;;;5052816;28;20164;-83
2023/10/31 05:06:25;;;;;;;0.50;0.50;;;;;;;;;;5050954;28;20263;-85
2023/10/31 05:08:51;;;;;;;0.77;0.77;;;;;;;;;;5029060;28;20209;-88
2023/10/31 05:11:18;;;;;;;0.70;0.70;;;;;;;;;;5029190;28;20180;-87
2023/10/31 05:13:44;;;;;;;0.70;0.70;;;;;;;;;;5029793;28;20190;-87
2023/10/31 05:16:11;;;;;;;0.60;0.60;;;;;;;;;;5029227;28;20192;-86
2023/10/31 05:18:37;;;;;;;0.57;0.57;;;;;;;;;;5031890;28;20207;-85
2023/10/31 05:21:04;;;;;;;0.63;0.63;;;;;;;;;;5033128;28;20647;-86
2023/10/31 05:23:30;;;;;;;0.50;0.50;;;;;;;;;;5035244;28;20732;-88
2023/10/31 05:25:56;;;;;;;0.60;0.60;;;;;;;;;;5032874;28;20219;-88
2023/10/31 05:28:23;;;;;;;0.70;0.70;;;;;;;;;;5033417;28;20240;-88
2023/10/31 05:30:49;;;;;;;0.50;0.50;;;;;;;;;;5033357;28;20184;-89
2023/10/31 05:33:16;;;;;;;0.50;0.50;;;;;;;;;;5033558;28;20183;-86
2023/10/31 05:35:42;;;;;;;0.57;0.57;;;;;;;;;;5031878;28;20698;-87
2023/10/31 05:38:08;;;;;;;0.53;0.53;;;;;;;;;;5032101;28;20549;-87
2023/10/31 05:40:35;;;;;;;0.60;0.60;;;;;;;;;;5031153;28;20207;-85
2023/10/31 05:43:02;;;;;;;0.60;0.60;;;;;;;;;;5031009;28;20179;-88
2023/10/31 05:45:28;;;;;;;0.60;0.60;;;;;;;;;;5031296;28;20192;-87
2023/10/31 05:47:54;;;;;;;0.60;0.60;;;;;;;;;;5032104;28;20179;-87
2023/10/31 05:50:20;;;;;;;0.60;0.60;;;;;;;;;;5032049;28;20191;-86
2023/10/31 05:52:46;;;;;;;0.60;0.60;;;;;;;;;;5032143;28;20184;-86
2023/10/31 05:55:12;;;;;;;0.60;0.60;;;;;;;;;;5031915;28;20701;-87
2023/10/31 05:57:38;;;;;;;0.60;0.60;;;;;;;;;;5032008;28;20616;-86
2023/10/31 06:00:04;;;;;;;0.50;0.50;;;;;;;;;;5032931;28;20585;-87
2023/10/31 06:02:30;;;;;;;0.60;0.60;;;;;;;;;;5032923;28;20172;-89
2023/10/31 06:04:56;;;;;;;0.57;0.57;;;;;;;;;;5035029;28;20277;-88
2023/10/31 06:07:23;;;;;;;0.67;0.67;;;;;;;;;;5054904;28;20192;-87
2023/10/31 06:09:48;;;;;;;0.60;0.60;;;;;;;;;;5051777;28;20232;-87
2023/10/31 06:12:14;;;;;;;0.47;0.47;;;;;;;;;;5029081;28;20414;-86
2023/10/31 06:14:40;;;;;;;0.50;0.50;;;;;;;;;;5031540;28;20188;-86
2023/10/31 06:17:06;;;;;;;0.60;0.60;;;;;;;;;;5054954;28;20168;-87
2023/10/31 06:19:36;;;;;;;0.60;0.60;;;;;;;;;;5057123;28;20194;-85
2023/10/31 06:22:02;;;;;;;0.67;0.67;;;;;;;;;;5056684;28;20204;-86
2023/10/31 06:24:28;;;;;;;0.60;0.60;;;;;;;;;;5056655;28;20174;-89
2023/10/31 06:26:54;;;;;;;0.60;0.60;;;;;;;;;;5056361;28;20191;-85
2023/10/31 06:29:20;;;;;;;0.70;0.70;;;;;;;;;;5056537;28;20168;-89
2023/10/31 06:31:46;;;;;;;0.60;0.60;;;;;;;;;;5056024;28;20240;-88
2023/10/31 06:34:12;;;;;;;0.60;0.60;;;;;;;;;;5043095;28;20548;-88
2023/10/31 06:36:38;;;;;;;0.63;0.63;;;;;;;;;;5032406;28;20208;-87
2023/10/31 06:39:05;;;;;;;0.73;0.73;;;;;;;;;;5032152;28;20315;-87
2023/10/31 06:41:31;;;;;;;0.63;0.63;;;;;;;;;;5030440;28;20314;-88
2023/10/31 06:43:57;;;;;;;0.60;0.60;;;;;;;;;;5032008;28;20211;-89
2023/10/31 06:46:23;;;;;;;0.60;0.60;;;;;;;;;;5029526;28;20253;-88
2023/10/31 06:48:49;;;;;;;0.60;0.60;;;;;;;;;;5031485;28;20588;-86
2023/10/31 06:51:15;;;;;;;0.70;0.70;;;;;;;;;;5045330;28;20184;-86
2023/10/31 06:53:41;;;;;;;0.67;0.67;;;;;;;;;;5068062;28;20189;-87
2023/10/31 06:56:07;;;;;;;0.60;0.60;;;;;;;;;;5055529;28;20197;-88
2023/10/31 06:58:33;;;;;;;0.70;0.70;;;;;;;;;;5040094;28;20255;-87
2023/10/31 07:00:59;;;;;;;0.70;0.70;;;;;;;;;;5016149;28;20320;-87
2023/10/31 07:03:25;;;;;;;0.60;0.60;;;;;;;;;;5043574;28;20177;-85
2023/10/31 07:05:52;;;;;;;0.50;0.50;;;;;;;;;;5008873;28;20200;-87
2023/10/31 07:08:19;;;;;;;0.70;0.70;;;;;;;;;;5021918;28;20196;-89
2023/10/31 07:10:47;;;;;;;0.60;0.60;;;;;;;;;;5026448;28;20608;-85
2023/10/31 07:13:13;;;;;;;0.60;0.60;;;;;;;;;;5010708;28;20176;-86
2023/10/31 07:15:39;;;;;;;0.67;0.67;;;;;;;;;;5031040;28;20188;-88
2023/10/31 07:18:08;;;;;;;0.60;0.60;;;;;;;;;;5012239;28;20196;-89
2023/10/31 07:20:34;;;;;;;0.50;0.50;;;;;;;;;;5011965;28;20657;-89
2023/10/31 07:23:01;;;;;;;0.50;0.50;;;;;;;;;;5012005;28;20179;-89
2023/10/31 07:25:28;;;;;;;0.60;0.60;;;;;;;;;;5014700;28;20232;-88
2023/10/31 07:27:54;;;;;;;0.53;0.53;;;;;;;;;;5024209;28;20176;-88
2023/10/31 07:30:20;;;;;;;0.63;0.63;;;;;;;;;;5026206;28;20218;-91
2023/10/31 07:32:46;;;;;;;0.70;0.70;;;;;;;;;;5021479;28;20240;-87
2023/10/31 07:35:12;;;;;;;0.60;0.60;;;;;;;;;;5022145;28;20570;-88
2023/10/31 07:37:38;;;;;;;0.60;0.60;;;;;;;;;;5040947;28;20181;-87
2023/10/31 07:40:04;;;;;;;0.60;0.60;;;;;;;;;;5039439;28;20180;-87
2023/10/31 07:42:31;;;;;;;0.50;0.50;;;;;;;;;;5025738;28;20161;-88
2023/10/31 07:44:57;;;;;;;0.53;0.53;;;;;;;;;;5033268;28;20235;-86
2023/10/31 07:47:23;;;;;;;0.60;0.60;;;;;;;;;;5132902;28;20173;-87
2023/10/31 07:49:49;;;;;;;0.60;0.60;;;;;;;;;;5132693;28;20177;-86
2023/10/31 07:52:15;;;;;;;0.73;0.73;;;;;;;;;;5129442;28;20165;-87
2023/10/31 07:54:41;;;;;;;0.67;0.67;;;;;;;;;;5128644;28;20179;-84
2023/10/31 07:57:07;;;;;;;0.60;0.60;;;;;;;;;;5128475;28;20241;-84
2023/10/31 07:59:34;;;;;;;0.60;0.60;;;;;;;;;;5122701;28;20615;-88
2023/10/31 08:02:02;;;;;;;0.60;0.60;;;;;;;;;;5117910;28;20252;-84
2023/10/31 08:04:29;;;;;;;0.60;0.60;;;;;;;;;;5126502;28;20207;-86
2023/10/31 08:06:55;;;;;;;0.67;0.67;;;;;;;;;;5138398;28;20180;-84
2023/10/31 08:09:21;;;;;;;0.60;0.60;;;;;;;;;;5137712;28;20181;-86
2023/10/31 08:11:47;;;;;;;0.70;0.70;;;;;;;;;;5138026;28;20181;-86
2023/10/31 08:14:15;;;;;;;0.60;0.60;;;;;;;;;;5130905;28;20650;-85
2023/10/31 08:16:41;;;;;;;0.70;0.70;;;;;;;;;;5123993;28;20284;-85
2023/10/31 08:19:07;;;;;;;0.50;0.50;;;;;;;;;;5123680;28;20173;-87
2023/10/31 08:21:35;;;;;;;0.50;0.50;;;;;;;;;;5115665;28;20201;-84
2023/10/31 08:24:04;;;;;;;0.50;0.50;;;;;;;;;;5115008;28;20173;-87
2023/10/31 08:26:34;;;;;;;0.60;0.60;;;;;;;;;;5118656;28;20216;-85
2023/10/31 08:29:00;;;;;;;0.60;0.60;;;;;;;;;;5122306;28;20247;-87
2023/10/31 08:31:26;;;;;;;0.50;0.50;;;;;;;;;;5113629;28;20168;-87
2023/10/31 08:33:52;;;;;;;0.50;0.50;;;;;;;;;;5113769;28;20180;-87
2023/10/31 08:36:18;;;;;;;0.50;0.50;;;;;;;;;;5116355;28;20193;-87
2023/10/31 08:38:45;;;;;;;0.47;0.47;;;;;;;;;;5117206;28;20245;-85
2023/10/31 08:41:11;;;;;;;0.50;0.50;;;;;;;;;;5117495;28;20208;-85
2023/10/31 08:43:40;;;;;;;0.50;0.50;;;;;;;;;;5117700;28;20179;-84
2023/10/31 08:46:06;;;;;;;0.43;0.43;;;;;;;;;;5114065;28;20197;-85
2023/10/31 08:48:33;;;;;;;0.50;0.50;;;;;;;;;;5117731;28;20247;-86
2023/10/31 08:50:59;;;;;;;0.50;0.50;;;;;;;;;;5129660;28;20666;-85
2023/10/31 08:53:25;;;;;;;0.50;0.50;;;;;;;;;;5117850;28;20173;-87
2023/10/31 08:55:51;;;;;;;0.40;0.40;;;;;;;;;;5120575;28;20193;-84
2023/10/31 08:58:18;;;;;;;0.50;0.50;;;;;;;;;;5122523;28;20172;-84
2023/10/31 09:00:44;;;;;;;0.50;0.50;;;;;;;;;;5124163;28;20209;-86
2023/10/31 09:03:10;;;;;;;0.50;0.50;;;;;;;;;;5130987;28;20169;-86
2023/10/31 09:05:37;;;;;;;0.40;0.40;;;;;;;;;;5138990;28;20200;-83
2023/10/31 09:08:03;;;;;;;0.50;0.50;;;;;;;;;;5136352;28;20180;-86
2023/10/31 09:10:31;;;;;;;0.40;0.40;;;;;;;;;;5127557;28;20239;-85
2023/10/31 09:12:57;;;;;;;0.40;0.40;;;;;;;;;;5122636;28;20825;-86
2023/10/31 09:15:23;;;;;;;0.50;0.50;;;;;;;;;;5122391;28;20217;-86
2023/10/31 09:17:49;;;;;;;0.50;0.50;;;;;;;;;;5120697;28;20218;-84
2023/10/31 09:20:15;;;;;;;0.50;0.50;;;;;;;;;;5121648;28;20198;-86
2023/10/31 09:22:41;;;;;;;0.40;0.40;;;;;;;;;;5124535;28;20241;-85
2023/10/31 09:25:07;;;;;;;0.50;0.50;;;;;;;;;;5123267;28;20250;-86
2023/10/31 09:27:33;;;;;;;0.50;0.50;;;;;;;;;;5121752;28;20459;-85
2023/10/31 09:29:59;;;;;;;0.40;0.40;;;;;;;;;;5122845;28;20237;-85
2023/10/31 09:32:25;;;;;;;0.50;0.50;;;;;;;;;;5123984;28;20192;-86
2023/10/31 09:34:51;;;;;;;0.50;0.50;;;;;;;;;;5122441;28;20177;-86
2023/10/31 09:37:17;;;;;;;0.47;0.47;;;;;;;;;;5123950;28;20210;-87
2023/10/31 09:39:43;;;;;;;0.40;0.40;;;;;;;;;;5133478;28;20173;-84
2023/10/31 09:42:09;;;;;;;0.40;0.40;;;;;;;;;;5140563;28;20238;-85
2023/10/31 09:44:35;;;;;;;0.40;0.40;;;;;;;;;;5141379;28;20180;-83
2023/10/31 09:47:01;;;;;;;0.40;0.40;;;;;;;;;;5141521;28;20197;-84
2023/10/31 09:49:28;;;;;;;0.40;0.40;;;;;;;;;;5140868;28;20199;-81
2023/10/31 09:51:54;;;;;;;0.40;0.40;;;;;;;;;;5138563;28;20211;-85
2023/10/31 09:54:20;;;;;;;0.40;0.40;;;;;;;;;;5127796;28;20184;-84
2023/10/31 09:56:46;;;;;;;0.40;0.40;;;;;;;;;;5125335;28;20189;-84
2023/10/31 09:59:15;;;;;;;0.33;0.33;;;;;;;;;;5123722;28;20202;-84
2023/10/31 10:01:42;;;;;;;0.40;0.40;;;;;;;;;;5126902;28;20259;-85
2023/10/31 10:04:08;;;;;;;0.37;0.37;;;;;;;;;;5130888;28;20203;-83
2023/10/31 10:06:34;;;;;;;0.40;0.40;;;;;;;;;;5131364;28;20724;-84
2023/10/31 10:09:05;;;;;;;0.40;0.40;;;;;;;;;;5122754;28;20184;-85
2023/10/31 10:11:31;;;;;;;0.47;0.47;;;;;;;;;;5124613;28;20630;-85
2023/10/31 10:13:59;;;;;;;0.50;0.50;;;;;;;;;;5123246;28;20173;-84
2023/10/31 10:16:29;;;;;;;0.50;0.50;;;;;;;;;;5122564;28;20257;-85
2023/10/31 10:18:55;;;;;;;0.40;0.40;;;;;;;;;;5124171;28;20557;-83
2023/10/31 10:21:21;;;;;;;0.50;0.50;;;;;;;;;;5123985;28;20204;-86
2023/10/31 10:23:50;;;;;;;0.47;0.47;;;;;;;;;;5122139;28;20669;-85
2023/10/31 10:26:16;;;;;;;0.57;0.57;;;;;;;;;;5120692;28;20193;-86
2023/10/31 10:28:47;;;;;;;0.50;0.50;;;;;;;;;;5122591;28;20254;-86
2023/10/31 10:31:15;;;;;;;0.40;0.40;;;;;;;;;;5123528;28;20181;-86
2023/10/31 10:33:41;;;;;;;0.50;0.50;;;;;;;;;;5122620;28;20181;-85
2023/10/31 10:36:09;;;;;;;0.53;0.53;;;;;;;;;;5121686;28;20212;-85
2023/10/31 10:38:36;;;;;;;0.40;0.40;;;;;;;;;;5121398;28;20192;-85
2023/10/31 10:41:03;;;;;;;0.50;0.50;;;;;;;;;;5120165;28;20633;-83
2023/10/31 10:43:32;;;;;;;0.40;0.40;;;;;;;;;;5120665;27;20728;-86
2023/10/31 10:45:59;;;;;;;0.50;0.50;;;;;;;;;;5119944;28;20283;-86
2023/10/31 10:48:26;;;;;;;0.40;0.40;;;;;;;;;;5119738;28;20254;-86
2023/10/31 10:51:15;;;;;;;0.50;0.50;;;;;;;;;;5119148;28;20173;-87
2023/10/31 10:53:52;;;;;;;0.47;0.47;;;;;;;;;;5120018;28;20177;-85
2023/10/31 10:56:22;;;;;;;0.50;0.50;;;;;;;;;;5084131;28;20215;-86
2023/10/31 10:59:23;;;;;;;0.40;0.40;;;;;;;;;;5035881;28;20180;-84
2023/10/31 11:01:49;;;;;;;0.50;0.50;;;;;;;;;;4962738;28;20221;-85
2023/10/31 11:04:17;;;;;;;0.60;0.60;;;;;;;;;;5004905;28;20181;-86
2023/10/31 11:06:43;;;;;;;0.50;0.50;;;;;;;;;;5017130;28;20585;-85
2023/10/31 11:09:10;;;;;;;0.57;0.57;;;;;;;;;;5017076;28;20184;-84
2023/10/31 11:11:38;;;;;;;0.47;0.47;;;;;;;;;;5017187;28;20287;-84
2023/10/31 11:14:04;;;;;;;0.50;0.50;;;;;;;;;;5017294;28;20176;-85
2023/10/31 11:16:41;;;;;;;0.50;0.50;;;;;;;;;;5019086;28;20192;-86
2023/10/31 11:19:08;;;;;;;0.40;0.40;;;;;;;;;;5026574;28;20172;-81
2023/10/31 11:21:34;;;;;;;0.43;0.43;;;;;;;;;;5021553;28;20235;-84
2023/10/31 11:24:01;;;;;;;0.40;0.40;;;;;;;;;;5018339;28;20192;-86
2023/10/31 11:26:27;;;;;;;0.40;0.40;;;;;;;;;;5026949;28;20200;-84
2023/10/31 11:29:03;;;;;;;0.40;0.40;;;;;;;;;;5028043;28;20325;-84
2023/10/31 11:31:29;;;;;;;0.50;0.50;;;;;;;;;;5018768;28;20346;-84
2023/10/31 11:33:55;;;;;;;0.43;0.43;;;;;;;;;;5049978;28;20191;-85
2023/10/31 11:36:21;;;;;;;0.50;0.50;;;;;;;;;;5121657;28;20690;-84
2023/10/31 11:38:47;;;;;;;0.40;0.40;;;;;;;;;;5062635;28;20257;-85
2023/10/31 11:41:13;;;;;;;0.50;0.50;;;;;;;;;;5012920;28;20288;-84
2023/10/31 11:43:41;;;;;;;0.50;0.50;;;;;;;;;;5022469;28;20195;-86
2023/10/31 11:46:20;;;;;;;0.40;0.40;;;;;;;;;;5016629;28;20207;-84
2023/10/31 11:48:48;;;;;;;0.40;0.40;;;;;;;;;;5014645;28;20180;-85
2023/10/31 11:51:14;;;;;;;0.50;0.50;;;;;;;;;;5018131;28;20232;-86
2023/10/31 11:53:40;;;;;;;0.43;0.43;;;;;;;;;;5018767;28;20176;-86
2023/10/31 11:56:09;;;;;;;0.50;0.50;;;;;;;;;;5018870;28;20205;-82
2023/10/31 11:58:35;;;;;;;0.47;0.47;;;;;;;;;;5023496;28;20248;-83
2023/10/31 12:01:03;;;;;;;0.50;0.50;;;;;;;;;;5024307;28;20250;-82
2023/10/31 12:03:36;;;;;;;0.40;0.40;;;;;;;;;;5022896;28;20181;-83
2023/10/31 12:06:04;;;;;;;0.50;0.50;;;;;;;;;;5022886;28;20222;-84
2023/10/31 12:08:34;;;;;;;0.50;0.50;;;;;;;;;;5022464;28;20188;-84
2023/10/31 12:11:08;;;;;;;0.50;0.50;;;;;;;;;;5017658;28;20187;-84
2023/10/31 12:13:36;;;;;;;0.40;0.40;;;;;;;;;;5017214;28;20227;-85
2023/10/31 12:16:02;;;;;;;0.40;0.40;;;;;;;;;;5019272;28;20204;-85
2023/10/31 12:18:29;;;;;;;0.53;0.53;;;;;;;;;;5013757;28;20606;-85
2023/10/31 12:20:55;;;;;;;0.50;0.50;;;;;;;;;;5011769;28;20200;-86
2023/10/31 12:23:20;;;;;;;0.37;0.37;;;;;;;;;;5011477;28;20181;-86
2023/10/31 12:25:50;;;;;;;0.40;0.40;;;;;;;;;;5012607;28;20192;-86
2023/10/31 12:28:20;;;;;;;0.40;0.40;;;;;;;;;;5016342;28;20184;-87
2023/10/31 12:30:47;;;;;;;0.40;0.40;;;;;;;;;;5029697;28;20572;-84
2023/10/31 12:33:13;;;;;;;0.40;0.40;;;;;;;;;;5018700;28;20179;-84
2023/10/31 12:35:39;;;;;;;0.50;0.50;;;;;;;;;;5017394;28;20688;-85
2023/10/31 12:38:05;;;;;;;0.60;0.60;;;;;;;;;;5017332;28;20184;-86
2023/10/31 12:40:31;;;;;;;0.43;0.43;;;;;;;;;;5017036;28;20204;-85
2023/10/31 12:42:58;;;;;;;0.40;0.40;;;;;;;;;;5019752;28;20276;-85
2023/10/31 12:45:25;;;;;;;0.50;0.50;;;;;;;;;;5016631;28;20201;-84
2023/10/31 12:48:04;;;;;;;0.50;0.50;;;;;;;;;;5028254;28;20259;-83
2023/10/31 12:50:31;;;;;;;0.50;0.50;;;;;;;;;;5054301;28;20189;-84
2023/10/31 12:52:59;;;;;;;0.40;0.40;;;;;;;;;;5057625;28;20187;-85
2023/10/31 12:55:25;;;;;;;0.50;0.50;;;;;;;;;;5057410;28;20204;-82
2023/10/31 12:57:51;;;;;;;0.40;0.40;;;;;;;;;;5089951;28;20169;-83
2023/10/31 13:00:24;;;;;;;0.40;0.40;;;;;;;;;;5132663;28;20193;-85
2023/10/31 13:02:51;;;;;;;0.50;0.50;;;;;;;;;;5135919;28;20154;-83
2023/10/31 13:05:18;;;;;;;0.40;0.40;;;;;;;;;;5134990;28;20201;-82
2023/10/31 13:07:52;;;;;;;0.40;0.40;;;;;;;;;;5092756;28;20177;-83
2023/10/31 13:10:18;;;;;;;0.50;0.50;;;;;;;;;;5057339;28;20286;-85
2023/10/31 13:12:46;;;;;;;0.50;0.50;;;;;;;;;;5028868;28;20184;-85
2023/10/31 13:15:12;;;;;;;0.50;0.50;;;;;;;;;;5032873;28;20204;-86
2023/10/31 13:17:38;;;;;;;0.40;0.40;;;;;;;;;;5028316;28;20760;-84
2023/10/31 13:20:06;;;;;;;0.50;0.50;;;;;;;;;;5018788;28;20185;-82
2023/10/31 13:22:32;;;;;;;0.50;0.50;;;;;;;;;;5006407;28;20643;-83
2023/10/31 13:24:58;;;;;;;0.50;0.50;;;;;;;;;;5017750;28;20213;-82
2023/10/31 13:27:24;;;;;;;0.50;0.50;;;;;;;;;;5024816;28;20173;-84
2023/10/31 13:29:54;;;;;;;0.50;0.50;;;;;;;;;;5032268;28;20229;-85
2023/10/31 13:32:21;;;;;;;0.47;0.47;;;;;;;;;;5026602;28;20192;-84
2023/10/31 13:34:47;;;;;;;0.40;0.40;;;;;;;;;;5021511;28;20280;-86
2023/10/31 13:37:14;;;;;;;0.47;0.47;;;;;;;;;;5025126;28;20210;-84
2023/10/31 13:39:40;;;;;;;0.50;0.50;;;;;;;;;;5029840;28;20225;-85
2023/10/31 13:42:06;;;;;;;0.50;0.50;;;;;;;;;;5025296;28;20204;-83
2023/10/31 13:44:32;;;;;;;0.60;0.60;;;;;;;;;;5028919;28;20207;-84
2023/10/31 13:46:58;;;;;;;0.47;0.47;;;;;;;;;;5028535;28;20200;-84
2023/10/31 13:49:24;;;;;;;0.50;0.50;;;;;;;;;;5029555;28;20181;-83
2023/10/31 13:51:50;;;;;;;0.50;0.50;;;;;;;;;;5025910;28;20644;-84
2023/10/31 13:54:16;;;;;;;0.50;0.50;;;;;;;;;;5025887;28;20208;-81
2023/10/31 13:56:42;;;;;;;0.57;0.57;;;;;;;;;;5026150;28;20743;-81
2023/10/31 13:59:08;;;;;;;0.50;0.50;;;;;;;;;;5027350;28;20207;-82
2023/10/31 14:01:34;;;;;;;0.40;0.40;;;;;;;;;;5018652;28;20216;-82
2023/10/31 14:04:00;;;;;;;0.47;0.47;;;;;;;;;;5015577;28;20561;-84
2023/10/31 14:06:30;;;;;;;0.50;0.50;;;;;;;;;;5018396;28;20260;-83
2023/10/31 14:08:56;;;;;;;0.40;0.40;;;;;;;;;;5109537;28;20179;-84
2023/10/31 14:11:22;;;;;;;0.57;0.57;;;;;;;;;;5013744;28;20165;-83
2023/10/31 14:13:50;;;;;;;0.57;0.57;;;;;;;;;;5007984;28;20181;-84
2023/10/31 14:16:15;;;;;;;0.50;0.50;;;;;;;;;;4999293;28;20217;-83
2023/10/31 14:18:43;;;;;;;0.53;0.53;;;;;;;;;;5018293;28;20212;-83
2023/10/31 14:21:09;;;;;;;0.50;0.50;;;;;;;;;;5020637;28;20316;-82
2023/10/31 14:23:36;;;;;;;0.40;0.40;;;;;;;;;;5067895;28;20244;-83
2023/10/31 14:26:02;;;;;;;0.50;0.50;;;;;;;;;;5049851;28;20246;-79
2023/10/31 14:28:28;;;;;;;0.50;0.50;;;;;;;;;;5030785;28;20188;-81
2023/10/31 14:30:55;;;;;;;0.53;0.53;;;;;;;;;;5030960;28;20185;-80
2023/10/31 14:33:21;;;;;;;0.50;0.50;;;;;;;;;;5060065;28;20196;-83
2023/10/31 14:35:47;;;;;;;0.50;0.50;;;;;;;;;;5023663;28;20732;-83
2023/10/31 14:38:13;;;;;;;0.50;0.50;;;;;;;;;;5005889;28;20180;-83
2023/10/31 14:40:40;;;;;;;0.50;0.50;;;;;;;;;;5005221;28;20758;-82